Time;durP1;ratioP1;P1;durP2;ratioP2;P2;SDS_P1;SDS_P2;PMS_P1;PMS_P2;Temp;Humidity;BMP_temperature;BMP_pressure;BME280_temperature;BME280_humidity;BME280_pressure;Samples;Min_cycle;Max_cycle;Signal;HPM_P1;HPM_P2
2024/01/16 00:00:22;;;;;;;2.23;1.50;;;;;;;-0.96;100.00;100864.78;4957924;28;20022;-89
2024/01/16 00:02:47;;;;;;;4.73;2.03;;;;;;;-0.93;100.00;100862.28;4975633;28;20093;-88
2024/01/16 00:05:13;;;;;;;4.27;2.17;;;;;;;-0.92;100.00;100853.81;4975783;28;20053;-88
2024/01/16 00:07:39;;;;;;;4.17;1.90;;;;;;;-0.89;100.00;100858.97;4972533;28;20117;-88
2024/01/16 00:10:07;;;;;;;5.20;2.10;;;;;;;-0.89;100.00;100848.75;4972710;28;20027;-87
2024/01/16 00:12:32;;;;;;;3.40;1.60;;;;;;;-0.87;100.00;100861.56;4971690;28;20049;-88
2024/01/16 00:14:58;;;;;;;3.80;1.80;;;;;;;-0.87;100.00;100856.44;4972462;28;20117;-88
2024/01/16 00:17:23;;;;;;;3.83;1.90;;;;;;;-0.86;100.00;100853.94;4972224;28;20037;-88
2024/01/16 00:19:49;;;;;;;3.47;2.00;;;;;;;-0.84;100.00;100856.53;4972271;28;20469;-88
2024/01/16 00:22:14;;;;;;;4.03;1.80;;;;;;;-0.82;100.00;100859.97;4972486;28;20652;-88
2024/01/16 00:24:40;;;;;;;4.50;2.07;;;;;;;-0.81;100.00;100860.00;4971558;28;20476;-88
2024/01/16 00:27:05;;;;;;;3.00;1.80;;;;;;;-0.79;100.00;100855.78;4971980;28;20022;-88
2024/01/16 00:29:31;;;;;;;4.30;2.00;;;;;;;-0.80;100.00;100850.66;4954526;28;20037;-88
2024/01/16 00:31:56;;;;;;;3.30;1.80;;;;;;;-0.81;100.00;100857.44;4971882;28;20062;-88
2024/01/16 00:34:22;;;;;;;2.57;1.80;;;;;;;-0.81;100.00;100859.16;4971993;28;20539;-88
2024/01/16 00:36:47;;;;;;;5.17;1.73;;;;;;;-0.82;100.00;100859.97;4971686;28;20058;-88
2024/01/16 00:39:13;;;;;;;3.93;1.87;;;;;;;-0.83;100.00;100861.66;4954392;28;20039;-88
2024/01/16 00:41:39;;;;;;;2.40;1.70;;;;;;;-0.84;100.00;100865.03;4972065;28;20062;-88
2024/01/16 00:44:04;;;;;;;4.57;2.10;;;;;;;-0.83;100.00;100859.09;4948167;29;20416;-88
2024/01/16 00:46:30;;;;;;;2.80;1.60;;;;;;;-0.84;100.00;100865.03;4953065;28;20488;-88
2024/01/16 00:48:55;;;;;;;2.87;1.90;;;;;;;-0.83;100.00;100863.34;4953077;29;20031;-88
2024/01/16 00:51:21;;;;;;;3.83;1.90;;;;;;;-0.82;100.00;100868.47;4952907;28;20035;-88
2024/01/16 00:53:46;;;;;;;4.13;1.87;;;;;;;-0.82;100.00;100860.81;4941074;28;20114;-87
2024/01/16 00:56:12;;;;;;;4.17;1.87;;;;;;;-0.81;100.00;100857.44;4953247;28;20042;-89
2024/01/16 00:58:38;;;;;;;4.60;2.00;;;;;;;-0.80;100.00;100854.06;4953127;28;20058;-87
2024/01/16 01:01:03;;;;;;;2.80;1.80;;;;;;;-0.78;100.00;100862.63;4952167;28;20476;-88
2024/01/16 01:03:29;;;;;;;3.13;1.97;;;;;;;-0.78;100.00;100872.00;4953295;28;20034;-88
2024/01/16 01:05:55;;;;;;;3.60;1.70;;;;;;;-0.77;100.00;100883.94;4954936;28;20106;-87
2024/01/16 01:08:20;;;;;;;3.87;1.70;;;;;;;-0.75;100.00;100881.41;4952385;28;20027;-88
2024/01/16 01:10:45;;;;;;;3.00;2.00;;;;;;;-0.74;100.00;100890.78;4952889;28;20031;-88
2024/01/16 01:13:11;;;;;;;2.27;1.63;;;;;;;-0.72;100.00;100878.91;4953621;28;20023;-87
2024/01/16 01:15:36;;;;;;;4.33;1.60;;;;;;;-0.69;100.00;100881.53;4953080;28;20086;-88
2024/01/16 01:18:02;;;;;;;2.90;1.70;;;;;;;-0.68;100.00;100881.56;4952716;28;20532;-89
2024/01/16 01:20:27;;;;;;;2.50;1.50;;;;;;;-0.68;100.00;100883.22;4951258;28;20038;-89
2024/01/16 01:22:53;;;;;;;2.90;1.70;;;;;;;-0.66;100.00;100881.59;4952297;28;20024;-90
2024/01/16 01:25:18;;;;;;;2.73;1.47;;;;;;;-0.65;100.00;100873.97;4941739;29;20062;-87
2024/01/16 01:27:43;;;;;;;2.50;1.40;;;;;;;-0.62;100.00;100873.16;4954065;28;20106;-88
2024/01/16 01:30:12;;;;;;;2.53;1.67;;;;;;;-0.62;100.00;100873.16;4953860;28;20065;-88
2024/01/16 01:32:38;;;;;;;4.40;1.53;;;;;;;-0.62;100.00;100873.16;4951848;28;20035;-88
2024/01/16 01:35:05;;;;;;;3.40;1.60;;;;;;;-0.61;100.00;100869.78;4941684;29;20210;-87
2024/01/16 01:37:30;;;;;;;2.63;1.60;;;;;;;-0.62;100.00;100874.03;4937586;28;20027;-88
2024/01/16 01:39:55;;;;;;;5.43;2.10;;;;;;;-0.59;100.00;100883.44;4953825;28;20081;-88
2024/01/16 01:42:21;;;;;;;4.33;1.53;;;;;;;-0.59;100.00;100880.88;4939164;29;20143;-88
2024/01/16 01:44:47;;;;;;;4.67;1.90;;;;;;;-0.59;100.00;100873.22;4965048;28;20125;-88
2024/01/16 01:47:13;;;;;;;3.80;1.83;;;;;;;-0.59;100.00;100873.22;4970410;28;20019;-88
2024/01/16 01:49:38;;;;;;;5.67;2.17;;;;;;;-0.59;100.00;100878.34;4970532;28;20022;-88
2024/01/16 01:52:05;;;;;;;3.90;1.60;;;;;;;-0.58;100.00;100880.06;4969853;28;20452;-88
2024/01/16 01:54:34;;;;;;;5.80;2.20;;;;;;;-0.58;100.00;100884.28;4970051;28;20034;-88
2024/01/16 01:57:00;;;;;;;6.90;2.03;;;;;;;-0.59;100.00;100882.56;4941538;28;20480;-88
2024/01/16 01:59:27;;;;;;;4.67;2.03;;;;;;;-0.58;100.00;100884.28;4955239;28;20094;-88
2024/01/16 02:01:53;;;;;;;5.93;2.33;;;;;;;-0.59;100.00;100878.34;4955152;28;20046;-88
2024/01/16 02:04:19;;;;;;;6.10;2.00;;;;;;;-0.59;100.00;100886.00;4952135;28;20877;-87
2024/01/16 02:06:45;;;;;;;4.80;1.90;;;;;;;-0.58;100.00;100891.97;4969752;28;20053;-89
2024/01/16 02:09:13;;;;;;;4.10;1.90;;;;;;;-0.60;100.00;100891.94;4960329;28;20043;-88
2024/01/16 02:11:41;;;;;;;4.33;1.77;;;;;;;-0.59;100.00;100893.66;4941246;28;20027;-88
2024/01/16 02:14:07;;;;;;;3.20;1.97;;;;;;;-0.57;100.00;100893.69;4968900;28;20030;-88
2024/01/16 02:16:38;;;;;;;3.90;1.77;;;;;;;-0.58;100.00;100885.16;4964508;28;20050;-88
2024/01/16 02:19:04;;;;;;;5.40;2.10;;;;;;;-0.57;100.00;100889.44;4950016;28;20030;-88
2024/01/16 02:21:36;;;;;;;2.97;1.80;;;;;;;-0.56;100.00;100887.75;4968533;28;20027;-88
2024/01/16 02:24:02;;;;;;;4.80;1.87;;;;;;;-0.56;100.00;100885.19;4969150;28;20381;-87
2024/01/16 02:26:27;;;;;;;3.97;2.00;;;;;;;-0.56;100.00;100892.84;4969816;28;20019;-88
2024/01/16 02:28:53;;;;;;;5.10;1.80;;;;;;;-0.56;100.00;100883.50;4969494;28;20380;-88
2024/01/16 02:31:18;;;;;;;4.03;1.63;;;;;;;-0.56;100.00;100888.63;4969246;28;20054;-88
2024/01/16 02:33:44;;;;;;;4.73;1.53;;;;;;;-0.58;100.00;100885.16;4970282;28;20630;-87
2024/01/16 02:36:09;;;;;;;2.93;1.53;;;;;;;-0.60;100.00;100886.81;4970683;28;20138;-88
2024/01/16 02:38:34;;;;;;;4.77;1.47;;;;;;;-0.62;100.00;100888.47;4969855;28;20035;-88
2024/01/16 02:41:00;;;;;;;3.80;1.43;;;;;;;-0.63;100.00;100886.75;4969576;28;20178;-88
2024/01/16 02:43:26;;;;;;;1.73;1.20;;;;;;;-0.63;100.00;100894.44;4952002;28;20110;-88
2024/01/16 02:45:52;;;;;;;2.60;1.30;;;;;;;-0.63;100.00;100894.44;4970385;28;20023;-88
2024/01/16 02:48:18;;;;;;;2.20;1.10;;;;;;;-0.64;100.00;100900.38;4969732;28;20367;-88
2024/01/16 02:50:43;;;;;;;2.50;1.07;;;;;;;-0.63;100.00;100907.19;4969791;28;20488;-88
2024/01/16 02:53:08;;;;;;;2.80;1.20;;;;;;;-0.65;100.00;100904.63;4969965;28;20400;-89
2024/01/16 02:55:34;;;;;;;3.47;1.10;;;;;;;-0.64;100.00;100905.47;4969577;28;20027;-88
2024/01/16 02:57:59;;;;;;;2.03;1.00;;;;;;;-0.64;100.00;100898.69;4969405;28;20053;-88
2024/01/16 03:00:24;;;;;;;1.30;0.90;;;;;;;-0.62;100.00;100896.16;4969789;28;20622;-89
2024/01/16 03:02:50;;;;;;;1.47;0.90;;;;;;;-0.61;100.00;100897.88;4969829;28;20495;-88
2024/01/16 03:05:15;;;;;;;4.63;1.00;;;;;;;-0.58;100.00;100900.50;4969355;28;20477;-88
2024/01/16 03:07:41;;;;;;;2.57;0.90;;;;;;;-0.57;100.00;100912.44;4951604;28;20114;-88
2024/01/16 03:10:06;;;;;;;2.47;1.00;;;;;;;-0.55;100.00;100915.91;4952126;28;20035;-88
2024/01/16 03:12:32;;;;;;;6.20;1.10;;;;;;;-0.53;100.00;100906.59;4969539;28;20038;-88
2024/01/16 03:14:58;;;;;;;2.73;1.00;;;;;;;-0.51;100.00;100912.56;4969222;28;20110;-88
2024/01/16 03:17:23;;;;;;;4.47;0.80;;;;;;;-0.49;100.00;100915.16;4969538;28;20030;-89
2024/01/16 03:19:48;;;;;;;3.73;1.10;;;;;;;-0.50;100.00;100898.09;4968910;28;20031;-87
2024/01/16 03:22:14;;;;;;;3.07;0.90;;;;;;;-0.49;100.00;100895.56;4969486;28;20484;-88
2024/01/16 03:24:39;;;;;;;2.60;0.93;;;;;;;-0.49;100.00;100900.69;4968706;28;20427;-89
2024/01/16 03:27:04;;;;;;;3.30;1.13;;;;;;;-0.51;100.00;100912.56;4968816;28;20019;-88
2024/01/16 03:29:30;;;;;;;3.37;1.10;;;;;;;-0.52;100.00;100912.53;4951317;28;20058;-87
2024/01/16 03:31:55;;;;;;;1.67;0.70;;;;;;;-0.53;100.00;100906.59;4969332;28;20023;-88
2024/01/16 03:34:20;;;;;;;2.50;1.20;;;;;;;-0.52;100.00;100910.88;4969514;28;20399;-88
2024/01/16 03:36:46;;;;;;;2.33;1.00;;;;;;;-0.50;100.00;100908.31;4952528;28;20182;-88
2024/01/16 03:39:11;;;;;;;3.07;0.90;;;;;;;-0.48;100.00;100909.22;4951100;28;20129;-87
2024/01/16 03:41:37;;;;;;;3.20;1.00;;;;;;;-0.47;100.00;100911.81;4969436;28;20448;-88
2024/01/16 03:44:03;;;;;;;1.80;1.10;;;;;;;-0.50;100.00;100909.19;4972808;28;20412;-88
2024/01/16 03:46:29;;;;;;;1.87;0.80;;;;;;;-0.49;100.00;100905.78;4973316;28;20483;-87
2024/01/16 03:48:54;;;;;;;2.53;0.90;;;;;;;-0.46;100.00;100902.47;4973257;28;20142;-87
2024/01/16 03:51:19;;;;;;;3.53;0.80;;;;;;;-0.46;100.00;100898.19;4972532;28;20034;-88
2024/01/16 03:53:45;;;;;;;2.07;0.80;;;;;;;-0.43;100.00;100891.41;4973217;28;20027;-88
2024/01/16 03:56:11;;;;;;;2.40;0.90;;;;;;;-0.40;100.00;100894.03;4987747;28;20111;-88
2024/01/16 03:58:37;;;;;;;3.77;1.00;;;;;;;-0.36;100.00;100890.72;4971883;28;20411;-88
2024/01/16 04:01:02;;;;;;;2.00;1.00;;;;;;;-0.35;100.00;100892.44;4972251;28;20023;-87
2024/01/16 04:03:28;;;;;;;3.00;0.90;;;;;;;-0.36;100.00;100886.47;4972655;28;20484;-90
2024/01/16 04:05:53;;;;;;;2.40;1.10;;;;;;;-0.35;100.00;100887.34;4972849;28;20022;-87
2024/01/16 04:08:18;;;;;;;4.60;1.10;;;;;;;-0.33;100.00;100883.09;4954562;28;20022;-88
2024/01/16 04:10:44;;;;;;;5.10;1.10;;;;;;;-0.34;100.00;100883.91;4972284;28;20105;-87
2024/01/16 04:13:09;;;;;;;3.10;1.20;;;;;;;-0.36;100.00;100875.38;4971128;28;20031;-87
2024/01/16 04:15:38;;;;;;;2.80;0.90;;;;;;;-0.39;100.00;100873.63;4972327;28;20375;-87
2024/01/16 04:18:03;;;;;;;2.23;1.20;;;;;;;-0.40;100.00;100873.59;4972032;28;20118;-87
2024/01/16 04:20:28;;;;;;;4.23;1.20;;;;;;;-0.44;100.00;100866.69;4954180;28;20105;-87
2024/01/16 04:22:54;;;;;;;3.37;1.30;;;;;;;-0.46;100.00;100872.63;4954659;28;20050;-88
2024/01/16 04:25:19;;;;;;;5.43;1.30;;;;;;;-0.49;100.00;100867.47;4972064;28;20039;-88
2024/01/16 04:27:45;;;;;;;3.13;1.40;;;;;;;-0.51;100.00;100864.00;4971719;28;20174;-87
2024/01/16 04:30:10;;;;;;;4.57;1.70;;;;;;;-0.54;100.00;100861.41;4971417;28;20122;-88
2024/01/16 04:32:36;;;;;;;3.53;1.60;;;;;;;-0.56;100.00;100851.97;4971812;28;20110;-88
2024/01/16 04:35:01;;;;;;;4.53;2.10;;;;;;;-0.56;100.00;100857.09;4972111;28;20022;-88
2024/01/16 04:37:26;;;;;;;8.80;2.90;;;;;;;-0.56;100.00;100857.09;4972463;28;20034;-88
2024/01/16 04:39:53;;;;;;;6.37;2.90;;;;;;;-0.59;100.00;100860.44;4971890;28;20030;-87
2024/01/16 04:42:18;;;;;;;6.57;3.10;;;;;;;-0.60;100.00;100866.38;4971115;28;20029;-87
2024/01/16 04:44:44;;;;;;;6.93;3.73;;;;;;;-0.61;100.00;100867.22;4971589;28;20117;-88
2024/01/16 04:47:09;;;;;;;7.60;3.57;;;;;;;-0.63;100.00;100867.19;4972166;28;20138;-87
2024/01/16 04:49:34;;;;;;;8.17;3.60;;;;;;;-0.61;100.00;100869.78;4972172;28;20042;-87
2024/01/16 04:52:00;;;;;;;8.93;3.90;;;;;;;-0.62;100.00;100868.94;4953285;28;20690;-87
2024/01/16 04:54:25;;;;;;;8.10;4.00;;;;;;;-0.61;100.00;100872.31;4970743;28;20019;-88
2024/01/16 04:56:50;;;;;;;8.03;4.13;;;;;;;-0.62;100.00;100874.03;4953942;28;20023;-87
2024/01/16 04:59:16;;;;;;;8.33;3.97;;;;;;;-0.62;100.00;100868.03;4971861;28;20035;-87
2024/01/16 05:01:41;;;;;;;6.67;3.67;;;;;;;-0.64;100.00;100869.69;4970580;28;20054;-87
2024/01/16 05:04:08;;;;;;;8.27;4.17;;;;;;;-0.63;100.00;100873.97;4971525;28;20037;-87
2024/01/16 05:06:34;;;;;;;7.83;3.97;;;;;;;-0.63;100.00;100871.44;4953827;28;20030;-87
2024/01/16 05:08:59;;;;;;;6.90;3.70;;;;;;;-0.63;100.00;100866.31;4971197;28;20034;-87
2024/01/16 05:11:25;;;;;;;6.37;3.87;;;;;;;-0.62;100.00;100874.03;4970703;28;20027;-87
2024/01/16 05:13:56;;;;;;;6.30;4.07;;;;;;;-0.61;100.00;100864.66;4953569;28;20392;-87
2024/01/16 05:16:22;;;;;;;7.25;4.15;;;;;;;-0.61;100.00;100862.09;4953749;28;20268;-87
2024/01/16 05:18:47;;;;;;;7.37;3.90;;;;;;;-0.61;100.00;100859.56;4971586;28;20528;-87
2024/01/16 05:21:13;;;;;;;9.37;4.27;;;;;;;-0.62;100.00;100857.81;4971265;28;20106;-87
2024/01/16 05:23:38;;;;;;;7.20;4.00;;;;;;;-0.61;100.00;100849.34;4971512;28;20038;-87
2024/01/16 05:26:04;;;;;;;8.20;4.17;;;;;;;-0.61;100.00;100849.34;4953422;28;20026;-87
2024/01/16 05:28:29;;;;;;;8.70;3.77;;;;;;;-0.61;100.00;100841.66;4970771;28;20035;-87
2024/01/16 05:30:54;;;;;;;9.27;3.93;;;;;;;-0.62;100.00;100847.59;4970560;28;20033;-87
2024/01/16 05:33:20;;;;;;;8.70;3.70;;;;;;;-0.61;100.00;100846.78;4969876;28;20031;-87
2024/01/16 05:35:45;;;;;;;7.60;4.17;;;;;;;-0.60;100.00;100834.88;4971141;28;20034;-87
2024/01/16 05:38:12;;;;;;;9.13;3.90;;;;;;;-0.60;100.00;100838.28;4969932;28;20034;-87
2024/01/16 05:40:37;;;;;;;7.77;4.10;;;;;;;-0.60;100.00;100833.16;4953448;28;20030;-88
2024/01/16 05:43:03;;;;;;;6.83;3.93;;;;;;;-0.58;100.00;100834.06;4970334;28;20094;-87
2024/01/16 05:45:28;;;;;;;9.87;3.90;;;;;;;-0.57;100.00;100840.03;4951266;28;20046;-87
2024/01/16 05:47:53;;;;;;;7.27;4.00;;;;;;;-0.56;100.00;100831.53;4950747;29;20030;-88
2024/01/16 05:50:19;;;;;;;7.57;4.03;;;;;;;-0.59;100.00;100826.34;4920408;29;20063;-88
2024/01/16 05:52:44;;;;;;;9.20;4.40;;;;;;;-0.62;100.00;100824.59;4949691;29;20563;-87
2024/01/16 05:55:10;;;;;;;9.77;4.33;;;;;;;-0.64;100.00;100826.28;4949420;29;20110;-88
2024/01/16 05:57:37;;;;;;;7.60;4.23;;;;;;;-0.67;100.00;100823.66;4951304;29;20023;-88
2024/01/16 06:00:03;;;;;;;7.37;4.03;;;;;;;-0.71;100.00;100820.19;4950802;29;20023;-88
2024/01/16 06:02:29;;;;;;;6.27;4.00;;;;;;;-0.74;100.00;100817.56;4949951;29;20445;-88
2024/01/16 06:04:54;;;;;;;10.27;4.07;;;;;;;-0.77;100.00;100818.38;4950079;28;20521;-88
2024/01/16 06:07:20;;;;;;;10.33;4.27;;;;;;;-0.79;100.00;100829.38;4952150;29;20465;-87
2024/01/16 06:09:45;;;;;;;9.77;3.93;;;;;;;-0.82;100.00;100831.88;4952084;29;20556;-88
2024/01/16 06:12:12;;;;;;;8.17;4.20;;;;;;;-0.84;100.00;100828.44;4949842;29;20118;-88
2024/01/16 06:14:37;;;;;;;10.37;4.33;;;;;;;-0.85;100.00;100827.53;4950457;29;20169;-88
2024/01/16 06:17:05;;;;;;;9.93;4.13;;;;;;;-0.87;100.00;100829.22;4950434;29;20047;-87
2024/01/16 06:19:30;;;;;;;7.60;3.47;;;;;;;-0.88;100.00;100824.94;4934342;29;20023;-87
2024/01/16 06:21:55;;;;;;;7.57;3.73;;;;;;;-0.89;100.00;100825.78;4951196;28;20023;-88
2024/01/16 06:24:21;;;;;;;7.23;3.60;;;;;;;-0.90;100.00;100821.50;4950895;29;20146;-87
2024/01/16 06:26:46;;;;;;;6.47;3.63;;;;;;;-0.91;100.00;100824.88;4949659;29;20027;-87
2024/01/16 06:29:11;;;;;;;8.97;3.87;;;;;;;-0.94;100.00;100815.44;4950141;29;20023;-87
2024/01/16 06:31:38;;;;;;;6.13;3.43;;;;;;;-0.95;100.00;100823.09;4949766;28;20031;-88
2024/01/16 06:34:03;;;;;;;7.77;3.80;;;;;;;-0.96;100.00;100821.34;4932753;29;20763;-87
2024/01/16 06:36:28;;;;;;;10.83;3.43;;;;;;;-0.98;100.00;100828.13;4949652;29;20019;-88
2024/01/16 06:38:54;;;;;;;5.80;3.10;;;;;;;-1.01;100.00;100828.06;4951269;29;20027;-88
2024/01/16 06:41:19;;;;;;;7.83;3.80;;;;;;;-1.03;100.00;100829.75;4949702;28;20023;-87
2024/01/16 06:43:44;;;;;;;6.67;3.20;;;;;;;-1.05;100.00;100826.28;4955140;28;20126;-88
2024/01/16 06:46:10;;;;;;;7.33;3.30;;;;;;;-1.04;100.00;100825.47;4968004;28;20035;-87
2024/01/16 06:48:39;;;;;;;6.83;3.30;;;;;;;-1.07;100.00;100827.13;4969512;28;20460;-87
2024/01/16 06:51:05;;;;;;;8.07;3.70;;;;;;;-1.07;100.00;100824.56;4952919;28;20380;-87
2024/01/16 06:53:30;;;;;;;6.03;2.90;;;;;;;-1.10;100.00;100824.47;4969001;28;20029;-87
2024/01/16 06:55:56;;;;;;;9.87;3.23;;;;;;;-1.10;100.00;100826.16;4967659;28;20050;-88
2024/01/16 06:58:21;;;;;;;6.83;3.27;;;;;;;-1.11;100.00;100830.41;4968029;28;20062;-87
2024/01/16 07:00:47;;;;;;;6.47;3.00;;;;;;;-1.10;100.00;100828.72;4969658;28;20097;-87
2024/01/16 07:03:13;;;;;;;6.60;3.27;;;;;;;-1.13;100.00;100829.53;4970428;28;20411;-87
2024/01/16 07:05:40;;;;;;;8.43;3.37;;;;;;;-1.13;100.00;100834.63;4967268;28;20490;-87
2024/01/16 07:08:09;;;;;;;7.00;3.23;;;;;;;-1.13;100.00;100834.63;4952220;28;20114;-87
2024/01/16 07:10:34;;;;;;;5.77;3.00;;;;;;;-1.13;100.00;100833.78;4967833;28;20031;-87
2024/01/16 07:12:59;;;;;;;7.20;3.20;;;;;;;-1.15;100.00;100838.84;4968552;28;20673;-87
2024/01/16 07:15:25;;;;;;;7.63;3.07;;;;;;;-1.15;100.00;100843.94;4968607;28;20065;-87
2024/01/16 07:17:50;;;;;;;7.53;4.07;;;;;;;-1.14;100.00;100847.38;4955627;28;20034;-88
2024/01/16 07:20:16;;;;;;;9.17;3.10;;;;;;;-1.15;100.00;100843.94;4971826;28;20066;-87
2024/01/16 07:22:41;;;;;;;10.07;3.63;;;;;;;-1.18;100.00;100848.97;4972616;28;20058;-88
2024/01/16 07:25:07;;;;;;;6.40;3.10;;;;;;;-1.16;100.00;100849.03;4971979;28;20030;-88
2024/01/16 07:27:33;;;;;;;8.57;3.00;;;;;;;-1.19;100.00;100856.59;4971953;28;20026;-88
2024/01/16 07:29:59;;;;;;;7.50;4.03;;;;;;;-1.22;100.00;100865.06;4972880;28;20023;-88
2024/01/16 07:32:24;;;;;;;7.43;3.00;;;;;;;-1.23;100.00;100851.44;4971748;28;20496;-88
2024/01/16 07:34:51;;;;;;;5.87;3.10;;;;;;;-1.25;100.00;100853.06;4973351;28;20123;-88
2024/01/16 07:37:17;;;;;;;5.57;2.90;;;;;;;-1.24;100.00;100856.50;4955741;28;20030;-87
2024/01/16 07:39:43;;;;;;;7.23;3.00;;;;;;;-1.24;100.00;100856.50;4972383;28;20721;-87
2024/01/16 07:42:08;;;;;;;7.17;3.03;;;;;;;-1.26;100.00;100858.16;4971250;28;20058;-87
2024/01/16 07:44:33;;;;;;;5.63;2.73;;;;;;;-1.25;100.00;100857.34;4961541;28;20543;-87
2024/01/16 07:46:59;;;;;;;8.17;3.27;;;;;;;-1.26;100.00;100860.72;4947345;29;20023;-87
2024/01/16 07:49:24;;;;;;;8.50;3.00;;;;;;;-1.27;100.00;100857.28;4952873;29;20035;-88
2024/01/16 07:51:50;;;;;;;8.33;2.97;;;;;;;-1.26;100.00;100863.25;4952982;28;20063;-87
2024/01/16 07:54:15;;;;;;;6.27;2.97;;;;;;;-1.25;100.00;100857.34;4935741;29;20023;-87
2024/01/16 07:56:41;;;;;;;8.20;2.90;;;;;;;-1.27;100.00;100861.53;4952726;29;20074;-86
2024/01/16 07:59:07;;;;;;;7.67;2.60;;;;;;;-1.27;100.00;100869.19;4953544;28;20529;-87
2024/01/16 08:01:32;;;;;;;7.40;3.23;;;;;;;-1.25;100.00;100870.94;4955574;28;20106;-87
2024/01/16 08:03:58;;;;;;;6.73;3.17;;;;;;;-1.24;100.00;100879.47;4956941;28;20496;-86
2024/01/16 08:06:23;;;;;;;6.50;2.60;;;;;;;-1.23;100.00;100874.41;4955396;28;20493;-86
2024/01/16 08:08:49;;;;;;;6.93;3.13;;;;;;;-1.21;100.00;100877.00;4957584;28;20031;-87
2024/01/16 08:11:15;;;;;;;7.77;3.00;;;;;;;-1.19;100.00;100877.88;4957978;28;20059;-87
2024/01/16 08:13:40;;;;;;;6.67;2.87;;;;;;;-1.20;100.00;100873.63;4956567;28;20500;-86
2024/01/16 08:16:06;;;;;;;5.57;2.50;;;;;;;-1.19;100.00;100871.91;4957690;28;20034;-87
2024/01/16 08:18:32;;;;;;;6.90;3.00;;;;;;;-1.20;100.00;100883.84;4957774;28;20062;-87
2024/01/16 08:20:57;;;;;;;6.10;2.67;;;;;;;-1.18;100.00;100883.88;4960332;28;20066;-87
2024/01/16 08:23:23;;;;;;;6.03;2.83;;;;;;;-1.16;100.00;100880.50;4958973;28;20027;-88
2024/01/16 08:25:49;;;;;;;4.57;2.47;;;;;;;-1.16;100.00;100884.75;4956510;28;20065;-86
2024/01/16 08:28:14;;;;;;;6.30;2.67;;;;;;;-1.15;100.00;100882.22;4948551;29;20492;-86
2024/01/16 08:30:40;;;;;;;5.37;2.43;;;;;;;-1.14;100.00;100890.78;4951098;28;20027;-86
2024/01/16 08:33:05;;;;;;;4.97;2.60;;;;;;;-1.14;100.00;100889.06;4949614;29;20031;-86
2024/01/16 08:35:31;;;;;;;6.10;2.80;;;;;;;-1.15;100.00;100882.22;4950213;29;20608;-90
2024/01/16 08:37:56;;;;;;;5.93;2.80;;;;;;;-1.13;100.00;100878.03;4950735;29;20492;-88
2024/01/16 08:40:22;;;;;;;5.43;2.87;;;;;;;-1.15;100.00;100877.13;4949108;28;20027;-88
2024/01/16 08:42:51;;;;;;;6.40;2.60;;;;;;;-1.13;100.00;100879.72;4948365;29;20036;-87
2024/01/16 08:45:17;;;;;;;6.30;2.70;;;;;;;-1.12;100.00;100884.88;4967462;28;20051;-88
2024/01/16 08:47:42;;;;;;;5.77;2.40;;;;;;;-1.10;100.00;100884.88;4940835;28;20034;-88
2024/01/16 08:50:09;;;;;;;5.57;2.87;;;;;;;-1.09;100.00;100884.94;4965721;28;20038;-88
2024/01/16 08:52:35;;;;;;;6.93;2.60;;;;;;;-1.08;100.00;100888.34;4965000;28;20191;-85
2024/01/16 08:55:00;;;;;;;8.00;3.07;;;;;;;-1.12;100.00;100877.19;4968117;28;20027;-88
2024/01/16 08:57:26;;;;;;;5.27;2.43;;;;;;;-1.09;100.00;100881.50;4971264;28;20045;-88
2024/01/16 08:59:52;;;;;;;6.40;2.50;;;;;;;-1.09;100.00;100873.84;4977315;28;20484;-90
2024/01/16 09:02:18;;;;;;;7.77;2.60;;;;;;;-1.07;100.00;100883.28;4975106;28;20134;-90
2024/01/16 09:04:43;;;;;;;5.23;2.80;;;;;;;-1.05;100.00;100882.47;4974933;28;20039;-89
2024/01/16 09:07:08;;;;;;;4.67;2.50;;;;;;;-1.04;100.00;100887.59;4977186;28;20022;-89
2024/01/16 09:09:34;;;;;;;6.37;2.80;;;;;;;-1.03;100.00;100888.47;4961068;28;20031;-87
2024/01/16 09:11:59;;;;;;;7.07;2.53;;;;;;;-1.03;100.00;100884.22;4955470;28;20472;-87
2024/01/16 09:14:25;;;;;;;6.77;3.13;;;;;;;-1.04;100.00;100879.94;4972346;28;20042;-85
2024/01/16 09:16:50;;;;;;;7.53;2.80;;;;;;;-1.02;100.00;100883.38;4969418;28;20676;-87
2024/01/16 09:19:16;;;;;;;5.80;2.47;;;;;;;-1.01;100.00;100884.22;4955776;28;20427;-88
2024/01/16 09:21:41;;;;;;;5.07;2.90;;;;;;;-1.00;100.00;100885.94;4967503;28;20101;-88
2024/01/16 09:24:06;;;;;;;9.00;2.70;;;;;;;-0.98;100.00;100879.19;4971467;28;20031;-88
2024/01/16 09:26:32;;;;;;;6.73;2.90;;;;;;;-0.95;100.00;100880.16;4969644;28;20042;-87
2024/01/16 09:28:57;;;;;;;5.27;2.57;;;;;;;-0.94;100.00;100875.88;4971172;28;20066;-85
2024/01/16 09:31:22;;;;;;;5.03;2.60;;;;;;;-0.92;100.00;100871.69;4968631;28;20405;-88
2024/01/16 09:33:48;;;;;;;4.70;2.40;;;;;;;-0.92;100.00;100880.19;4969638;28;20027;-88
2024/01/16 09:36:14;;;;;;;7.87;2.83;;;;;;;-0.90;100.00;100872.59;4972653;28;20124;-87
2024/01/16 09:38:39;;;;;;;9.20;2.97;;;;;;;-0.87;99.66;100871.78;4970823;28;20026;-87
2024/01/16 09:41:05;;;;;;;7.47;3.20;;;;;;;-0.88;99.21;100863.25;4968117;28;20130;-87
2024/01/16 09:43:32;;;;;;;7.07;2.80;;;;;;;-0.85;99.35;100865.00;4972807;28;20062;-90
2024/01/16 09:46:01;;;;;;;8.47;3.43;;;;;;;-0.86;99.80;100871.81;4975584;28;20026;-87
2024/01/16 09:48:28;;;;;;;7.17;2.90;;;;;;;-0.83;99.41;100876.97;4972652;28;20496;-91
2024/01/16 09:50:54;;;;;;;6.17;2.83;;;;;;;-0.81;99.73;100882.97;4951805;28;20062;-87
2024/01/16 09:53:19;;;;;;;7.77;3.13;;;;;;;-0.81;98.75;100880.44;4971482;28;20057;-89
2024/01/16 09:55:46;;;;;;;6.87;2.90;;;;;;;-0.78;98.81;100882.22;4971002;28;20788;-88
2024/01/16 09:58:14;;;;;;;6.50;3.10;;;;;;;-0.77;98.74;100887.34;4971003;28;20019;-86
2024/01/16 10:00:43;;;;;;;7.17;2.90;;;;;;;-0.78;98.04;100877.94;4966314;28;20026;-87
2024/01/16 10:03:12;;;;;;;6.03;2.90;;;;;;;-0.78;97.94;100875.38;4985175;28;20038;-88
2024/01/16 10:05:42;;;;;;;6.57;3.03;;;;;;;-0.79;97.99;100865.16;4969087;28;20530;-87
2024/01/16 10:08:07;;;;;;;6.10;2.70;;;;;;;-0.81;98.30;100861.69;4971709;28;20027;-88
2024/01/16 10:10:33;;;;;;;5.07;2.40;;;;;;;-0.82;99.00;100850.59;4970694;28;20529;-87
2024/01/16 10:12:59;;;;;;;7.33;3.07;;;;;;;-0.82;98.24;100852.31;4972001;28;20054;-87
2024/01/16 10:15:25;;;;;;;5.97;2.60;;;;;;;-0.84;97.92;100857.38;4971155;28;20047;-85
2024/01/16 10:17:50;;;;;;;6.10;2.90;;;;;;;-0.86;97.97;100853.06;4972450;28;20073;-86
2024/01/16 10:20:34;;;;;;;6.93;2.67;;;;;;;-0.86;98.05;100858.19;4969981;28;20031;-89
2024/01/16 10:23:00;;;;;;;9.47;3.30;;;;;;;-0.87;98.34;100854.78;4969533;28;20026;-86
2024/01/16 10:25:25;;;;;;;6.87;2.93;;;;;;;-0.84;97.45;100854.81;4973366;28;20436;-87
2024/01/16 10:28:03;;;;;;;6.33;2.80;;;;;;;-0.84;97.48;100847.16;4972748;28;20508;-86
2024/01/16 10:30:29;;;;;;;7.10;3.33;;;;;;;-0.83;97.73;100841.22;4974492;28;20022;-87
2024/01/16 10:32:54;;;;;;;6.67;2.87;;;;;;;-0.83;97.73;100837.81;4972145;28;20031;-87
2024/01/16 10:35:20;;;;;;;7.40;3.33;;;;;;;-0.81;97.70;100844.66;4975154;28;20023;-86
2024/01/16 10:37:49;;;;;;;6.93;3.30;;;;;;;-0.81;97.51;100844.66;4971623;28;20019;-87
2024/01/16 10:40:19;;;;;;;7.27;3.40;;;;;;;-0.81;97.32;100837.00;4976583;28;20100;-88
2024/01/16 10:42:46;;;;;;;8.20;3.13;;;;;;;-0.80;97.46;100841.28;4973324;28;20476;-87
2024/01/16 10:45:22;;;;;;;6.43;2.93;;;;;;;-0.76;97.34;100829.44;4954171;28;20090;-86
2024/01/16 10:47:48;;;;;;;5.80;2.93;;;;;;;-0.72;97.99;100827.81;4987370;28;20365;-88
2024/01/16 10:50:13;;;;;;;8.73;3.10;;;;;;;-0.67;96.82;100828.75;4975879;28;20029;-86
2024/01/16 10:52:47;;;;;;;7.43;3.13;;;;;;;-0.66;97.55;100825.38;4958150;28;20069;-89
2024/01/16 10:55:24;;;;;;;5.37;2.97;;;;;;;-0.62;97.56;100832.28;4956053;28;20120;-87
2024/01/16 10:57:50;;;;;;;7.60;2.93;;;;;;;-0.58;97.06;100839.19;4975632;28;20061;-89
2024/01/16 11:00:19;;;;;;;8.17;3.40;;;;;;;-0.57;97.05;100833.25;4969197;28;20026;-87
2024/01/16 11:02:49;;;;;;;7.20;3.10;;;;;;;-0.54;97.50;100832.41;4968850;28;20027;-87
2024/01/16 11:05:17;;;;;;;7.47;3.13;;;;;;;-0.51;97.41;100832.50;4972550;28;20061;-86
2024/01/16 11:07:43;;;;;;;6.17;3.10;;;;;;;-0.49;97.17;100824.00;4969394;28;20041;-86
2024/01/16 11:10:10;;;;;;;6.67;3.10;;;;;;;-0.46;97.20;100820.66;4969545;28;20194;-89
2024/01/16 11:12:37;;;;;;;7.43;3.17;;;;;;;-0.44;97.36;100818.13;4969364;28;20081;-86